Time;durP1;ratioP1;P1;durP2;ratioP2;P2;SDS_P1;SDS_P2;PMS_P1;PMS_P2;Temp;Humidity;BMP_temperature;BMP_pressure;BME280_temperature;BME280_humidity;BME280_pressure;Samples;Min_cycle;Max_cycle;Signal;HPM_P1;HPM_P2
2022/12/17 13:06:06;;;;;;;15.00;10.03;;;;;;;;;;4915171;29;20476;-60
2022/12/17 13:08:34;;;;;;;14.03;9.60;;;;;;;;;;4921557;29;20451;-62
2022/12/17 13:11:10;;;;;;;12.70;9.00;;;;;;;;;;4922040;29;20858;-60
2022/12/17 13:13:54;;;;;;;13.40;10.03;;;;;;;;;;4922316;29;20550;-60
2022/12/17 13:16:33;;;;;;;13.90;10.30;;;;;;;;;;4922202;29;20466;-60
2022/12/17 13:19:04;;;;;;;13.17;9.77;;;;;;;;;;4921912;29;20487;-60
2022/12/17 13:21:32;;;;;;;14.97;10.13;;;;;;;;;;4922005;29;20558;-60
2022/12/17 13:24:10;;;;;;;19.17;11.70;;;;;;;;;;4921948;29;20483;-60
2022/12/17 13:26:47;;;;;;;14.00;10.07;;;;;;;;;;4922032;29;20593;-61
2022/12/17 13:29:21;;;;;;;14.50;10.03;;;;;;;;;;4922045;29;20472;-60
2022/12/17 13:31:56;;;;;;;17.60;9.83;;;;;;;;;;4922003;29;20462;-60
2022/12/17 13:34:27;;;;;;;15.53;11.27;;;;;;;;;;4921548;29;20471;-60
2022/12/17 13:36:59;;;;;;;12.47;9.30;;;;;;;;;;4921342;29;20467;-60
2022/12/17 13:39:33;;;;;;;15.17;10.67;;;;;;;;;;4921056;29;20487;-60
2022/12/17 13:42:04;;;;;;;14.57;9.80;;;;;;;;;;4916523;29;20551;-60
2022/12/17 13:44:36;;;;;;;15.07;10.40;;;;;;;;;;4935627;29;20845;-60
2022/12/17 13:47:04;;;;;;;16.13;10.83;;;;;;;;;;4929566;29;20514;-60
2022/12/17 13:49:33;;;;;;;14.83;10.57;;;;;;;;;;4921088;29;20476;-61
2022/12/17 13:52:02;;;;;;;13.00;10.37;;;;;;;;;;4927604;29;20554;-60
2022/12/17 13:54:38;;;;;;;15.90;11.30;;;;;;;;;;4922185;29;20451;-61
2022/12/17 13:57:07;;;;;;;17.60;10.53;;;;;;;;;;4922445;29;20463;-61
2022/12/17 13:59:35;;;;;;;16.23;11.10;;;;;;;;;;4922548;29;20483;-60
2022/12/17 14:02:06;;;;;;;15.13;11.07;;;;;;;;;;4922077;29;20448;-60
2022/12/17 14:04:37;;;;;;;14.73;10.13;;;;;;;;;;4919889;29;20483;-61
2022/12/17 14:07:06;;;;;;;18.30;10.70;;;;;;;;;;4922996;29;20455;-60
2022/12/17 14:09:36;;;;;;;15.10;11.57;;;;;;;;;;4922326;29;20816;-60
2022/12/17 14:14:59;;;;;;;17.00;11.03;;;;;;;;;;4898318;29;20535;-60
2022/12/17 14:17:29;;;;;;;13.63;11.37;;;;;;;;;;4920992;29;20488;-60
2022/12/17 14:19:59;;;;;;;17.90;9.63;;;;;;;;;;4921035;29;20858;-60
2022/12/17 14:22:30;;;;;;;12.80;9.67;;;;;;;;;;4921461;29;20451;-60
2022/12/17 14:24:58;;;;;;;14.90;9.97;;;;;;;;;;4921374;29;20951;-60
2022/12/17 14:27:27;;;;;;;15.00;10.73;;;;;;;;;;4921798;29;20518;-60
2022/12/17 14:29:55;;;;;;;16.50;11.43;;;;;;;;;;4921880;29;20760;-61
2022/12/17 14:32:25;;;;;;;14.30;10.43;;;;;;;;;;4921676;29;20447;-61
2022/12/17 14:34:53;;;;;;;14.77;9.87;;;;;;;;;;4921107;29;20488;-60
2022/12/17 14:37:29;;;;;;;20.10;11.03;;;;;;;;;;4923844;29;20452;-60
2022/12/17 14:40:00;;;;;;;13.13;10.63;;;;;;;;;;4925449;29;20501;-60
2022/12/17 14:42:31;;;;;;;17.63;10.50;;;;;;;;;;4924836;29;20854;-60
2022/12/17 14:45:00;;;;;;;13.97;10.73;;;;;;;;;;4925380;29;20958;-60
2022/12/17 14:47:29;;;;;;;19.47;11.13;;;;;;;;;;4924642;29;20452;-60
2022/12/17 14:50:00;;;;;;;15.43;11.43;;;;;;;;;;4917093;29;20943;-60
2022/12/17 14:52:33;;;;;;;12.50;9.43;;;;;;;;;;4919268;29;20461;-60
2022/12/17 14:55:01;;;;;;;16.33;10.63;;;;;;;;;;4922690;29;20534;-60
2022/12/17 14:57:29;;;;;;;17.10;11.43;;;;;;;;;;4924854;29;20455;-59
2022/12/17 14:59:57;;;;;;;14.83;11.27;;;;;;;;;;4923696;29;20574;-60
2022/12/17 15:02:27;;;;;;;16.00;11.33;;;;;;;;;;4920234;29;20473;-60
2022/12/17 15:04:57;;;;;;;12.67;9.90;;;;;;;;;;4922407;29;20491;-60
2022/12/17 15:07:26;;;;;;;14.53;11.47;;;;;;;;;;4921531;29;20531;-60
2022/12/17 15:09:56;;;;;;;14.03;11.37;;;;;;;;;;4918599;29;20498;-60
2022/12/17 15:12:24;;;;;;;16.87;10.63;;;;;;;;;;4929244;29;20549;-60
2022/12/17 15:14:52;;;;;;;16.30;10.87;;;;;;;;;;4918257;29;20865;-60
2022/12/17 15:17:20;;;;;;;16.03;11.13;;;;;;;;;;4916448;29;20490;-61
2022/12/17 15:19:48;;;;;;;14.73;11.80;;;;;;;;;;4923893;29;20487;-61
2022/12/17 15:22:23;;;;;;;16.40;9.97;;;;;;;;;;4932341;29;20463;-61
2022/12/17 15:24:51;;;;;;;17.40;11.07;;;;;;;;;;4929953;29;20546;-61
2022/12/17 15:27:20;;;;;;;16.50;10.93;;;;;;;;;;4926805;29;20502;-61
2022/12/17 15:29:48;;;;;;;14.03;10.63;;;;;;;;;;4927999;29;20462;-61
2022/12/17 15:32:18;;;;;;;14.83;11.43;;;;;;;;;;4926457;29;20490;-61
2022/12/17 15:34:46;;;;;;;13.80;9.93;;;;;;;;;;4938113;29;21033;-61
2022/12/17 15:37:14;;;;;;;17.33;12.27;;;;;;;;;;4927878;29;20469;-61
2022/12/17 15:39:49;;;;;;;17.57;11.13;;;;;;;;;;4927745;29;20518;-61
2022/12/17 15:45:05;;;;;;;20.17;11.63;;;;;;;;;;4929564;29;20467;-61
2022/12/17 15:47:33;;;;;;;14.17;10.17;;;;;;;;;;4922332;29;20499;-61
2022/12/17 15:50:01;;;;;;;18.70;11.40;;;;;;;;;;4924035;29;20491;-61
2022/12/17 15:52:29;;;;;;;20.13;13.00;;;;;;;;;;4934459;29;20955;-61
2022/12/17 15:54:57;;;;;;;15.63;10.13;;;;;;;;;;4930449;29;20970;-61
2022/12/17 15:57:25;;;;;;;19.33;11.67;;;;;;;;;;4923046;29;21076;-61
2022/12/17 15:59:53;;;;;;;18.77;12.03;;;;;;;;;;4931741;29;20483;-61
2022/12/17 16:02:22;;;;;;;18.70;12.57;;;;;;;;;;4926392;29;20523;-61
2022/12/17 16:04:53;;;;;;;14.80;10.97;;;;;;;;;;4926651;29;20490;-61
2022/12/17 16:07:21;;;;;;;17.50;11.67;;;;;;;;;;4927279;29;20456;-61
2022/12/17 16:09:49;;;;;;;18.37;12.33;;;;;;;;;;4919375;29;20515;-61
2022/12/17 16:12:17;;;;;;;17.50;11.43;;;;;;;;;;4927440;29;20464;-61
2022/12/17 16:14:45;;;;;;;23.10;13.37;;;;;;;;;;4922192;29;20902;-62
2022/12/17 16:17:13;;;;;;;20.47;12.30;;;;;;;;;;4923243;29;20479;-62
2022/12/17 16:19:42;;;;;;;20.87;12.17;;;;;;;;;;4924370;29;21021;-62
2022/12/17 16:22:10;;;;;;;20.37;12.93;;;;;;;;;;4932114;29;21017;-62
2022/12/17 16:24:39;;;;;;;14.77;10.50;;;;;;;;;;4927135;29;20469;-61
2022/12/17 16:27:07;;;;;;;16.07;10.23;;;;;;;;;;4931532;29;20448;-61
2022/12/17 16:29:35;;;;;;;15.07;10.77;;;;;;;;;;4922346;29;20464;-61
2022/12/17 16:32:03;;;;;;;18.63;12.17;;;;;;;;;;4934668;29;20557;-61
2022/12/17 16:34:31;;;;;;;16.30;11.20;;;;;;;;;;4923854;29;20574;-61
2022/12/17 16:37:01;;;;;;;19.17;11.63;;;;;;;;;;4935939;29;20469;-61
2022/12/17 16:39:29;;;;;;;16.67;12.43;;;;;;;;;;4928569;29;20578;-61
2022/12/17 16:41:57;;;;;;;19.60;12.87;;;;;;;;;;4916559;29;20490;-61
2022/12/17 16:44:25;;;;;;;16.63;11.30;;;;;;;;;;4923696;29;20471;-61
2022/12/17 16:46:53;;;;;;;17.50;12.67;;;;;;;;;;4927087;29;20546;-61
2022/12/17 16:49:22;;;;;;;20.67;13.30;;;;;;;;;;4933941;29;20478;-61
2022/12/17 16:51:53;;;;;;;17.57;11.53;;;;;;;;;;4929893;29;20494;-61
2022/12/17 16:54:27;;;;;;;18.90;12.60;;;;;;;;;;4922229;29;20488;-61
2022/12/17 16:56:55;;;;;;;19.27;12.23;;;;;;;;;;4921681;29;20531;-61
2022/12/17 16:59:24;;;;;;;20.27;12.57;;;;;;;;;;4920981;29;20498;-61
2022/12/17 17:01:52;;;;;;;17.33;10.57;;;;;;;;;;4930264;29;20467;-61
2022/12/17 17:04:21;;;;;;;16.80;11.83;;;;;;;;;;4929684;29;20546;-61
2022/12/17 17:06:50;;;;;;;17.77;12.13;;;;;;;;;;4923128;29;20470;-61
2022/12/17 17:09:18;;;;;;;20.33;12.33;;;;;;;;;;4924783;29;21350;-61
2022/12/17 17:11:47;;;;;;;19.73;11.63;;;;;;;;;;4925386;29;20490;-61
2022/12/17 17:14:19;;;;;;;18.33;11.90;;;;;;;;;;4923878;29;20487;-61
2022/12/17 17:16:46;;;;;;;19.43;12.60;;;;;;;;;;4909812;29;20456;-61
2022/12/17 17:19:15;;;;;;;20.60;14.90;;;;;;;;;;4921124;29;20519;-61
2022/12/17 17:21:47;;;;;;;23.30;13.63;;;;;;;;;;4930048;29;20526;-61
2022/12/17 17:24:16;;;;;;;22.60;14.00;;;;;;;;;;4924673;29;21027;-61
2022/12/17 17:26:50;;;;;;;22.70;14.10;;;;;;;;;;4927954;29;20478;-61
2022/12/17 17:29:18;;;;;;;23.10;14.97;;;;;;;;;;4929952;29;20495;-61
2022/12/17 17:31:46;;;;;;;23.10;14.63;;;;;;;;;;4923546;29;20968;-61
2022/12/17 17:34:37;;;;;;;23.50;13.10;;;;;;;;;;4928875;29;20476;-61
2022/12/17 17:37:05;;;;;;;18.27;13.13;;;;;;;;;;4927474;29;20511;-61
2022/12/17 17:39:33;;;;;;;17.00;12.60;;;;;;;;;;4928893;29;20485;-61
2022/12/17 17:42:03;;;;;;;24.00;15.13;;;;;;;;;;4927123;29;20520;-61
2022/12/17 17:44:31;;;;;;;23.70;14.00;;;;;;;;;;4923935;29;20482;-61
2022/12/17 17:47:00;;;;;;;21.93;15.53;;;;;;;;;;4930263;29;20494;-61
2022/12/17 17:49:28;;;;;;;23.80;15.47;;;;;;;;;;4920895;29;20498;-61
2022/12/17 17:51:56;;;;;;;28.17;15.40;;;;;;;;;;4932731;29;20469;-61
2022/12/17 17:54:37;;;;;;;24.53;15.73;;;;;;;;;;4926278;29;20478;-61
2022/12/17 17:57:06;;;;;;;26.27;17.10;;;;;;;;;;4925126;29;20459;-61
2022/12/17 17:59:35;;;;;;;24.97;15.93;;;;;;;;;;4938486;29;20467;-61
2022/12/17 18:02:03;;;;;;;29.20;16.83;;;;;;;;;;4927941;29;20487;-61
2022/12/17 18:04:31;;;;;;;24.43;16.30;;;;;;;;;;4915968;29;20488;-61
2022/12/17 18:06:59;;;;;;;28.93;17.67;;;;;;;;;;4918585;29;20495;-61
2022/12/17 18:09:47;;;;;;;29.37;17.30;;;;;;;;;;4918415;29;20459;-61
2022/12/17 18:15:02;;;;;;;21.70;14.77;;;;;;;;;;4919154;29;20530;-61
2022/12/17 18:17:46;;;;;;;26.23;15.10;;;;;;;;;;4914752;29;20470;-61
2022/12/17 18:20:15;;;;;;;24.83;14.57;;;;;;;;;;4914784;29;20484;-61
2022/12/17 18:22:44;;;;;;;25.03;16.17;;;;;;;;;;4911709;29;20468;-61
2022/12/17 18:25:14;;;;;;;24.37;15.30;;;;;;;;;;4923987;29;20459;-61
2022/12/17 18:27:43;;;;;;;23.33;14.93;;;;;;;;;;4927648;29;20463;-61
2022/12/17 18:30:12;;;;;;;28.20;17.30;;;;;;;;;;4920711;29;20471;-61
2022/12/17 18:32:40;;;;;;;27.90;16.73;;;;;;;;;;4916535;29;20569;-61
2022/12/17 18:35:08;;;;;;;24.30;15.77;;;;;;;;;;4916510;29;20471;-61
2022/12/17 18:37:37;;;;;;;28.33;16.37;;;;;;;;;;4916678;29;20460;-61
2022/12/17 18:40:06;;;;;;;25.23;15.87;;;;;;;;;;4917107;29;20542;-61
2022/12/17 18:45:21;;;;;;;23.90;14.30;;;;;;;;;;4913835;29;20525;-61
2022/12/17 18:47:50;;;;;;;22.23;14.93;;;;;;;;;;4915548;29;20578;-60
2022/12/17 18:50:18;;;;;;;27.30;16.20;;;;;;;;;;4919624;29;20464;-60
2022/12/17 18:52:46;;;;;;;28.70;16.83;;;;;;;;;;4912589;29;21051;-60
2022/12/17 18:55:14;;;;;;;28.60;16.77;;;;;;;;;;4919916;29;20524;-61
2022/12/17 18:57:43;;;;;;;24.03;15.53;;;;;;;;;;4914326;29;20441;-61
2022/12/17 19:00:12;;;;;;;26.13;15.77;;;;;;;;;;4917709;29;20467;-61
2022/12/17 19:02:41;;;;;;;26.43;16.10;;;;;;;;;;4915449;29;20515;-61
2022/12/17 19:05:09;;;;;;;29.00;16.70;;;;;;;;;;4914923;29;20499;-61
2022/12/17 19:07:37;;;;;;;29.93;17.40;;;;;;;;;;4919389;29;20562;-61
2022/12/17 19:10:06;;;;;;;27.67;15.53;;;;;;;;;;4922000;29;20971;-61
2022/12/17 19:12:34;;;;;;;25.47;15.63;;;;;;;;;;4921664;29;20508;-61
2022/12/17 19:15:02;;;;;;;28.70;16.00;;;;;;;;;;4918161;29;21011;-61
2022/12/17 19:17:30;;;;;;;30.43;17.20;;;;;;;;;;4923171;29;20979;-61
2022/12/17 19:19:59;;;;;;;27.70;16.63;;;;;;;;;;4919321;29;20490;-61
2022/12/17 19:22:28;;;;;;;26.43;16.87;;;;;;;;;;4918103;29;20534;-61
2022/12/17 19:24:56;;;;;;;29.37;16.43;;;;;;;;;;4924579;29;20458;-62
2022/12/17 19:27:24;;;;;;;25.67;17.10;;;;;;;;;;4924226;29;20507;-62
2022/12/17 19:29:53;;;;;;;27.60;16.17;;;;;;;;;;4927644;29;20506;-62
2022/12/17 19:32:22;;;;;;;23.77;15.83;;;;;;;;;;4932202;29;20458;-61
2022/12/17 19:34:50;;;;;;;30.20;16.30;;;;;;;;;;4934436;29;20486;-62
2022/12/17 19:37:20;;;;;;;33.07;17.17;;;;;;;;;;4927105;29;20490;-63
2022/12/17 19:39:48;;;;;;;26.23;17.40;;;;;;;;;;4925711;29;20460;-63
2022/12/17 19:42:24;;;;;;;28.50;16.20;;;;;;;;;;4925358;29;20514;-63
2022/12/17 19:44:53;;;;;;;25.40;16.87;;;;;;;;;;4923346;29;20546;-63
2022/12/17 19:47:21;;;;;;;29.77;16.53;;;;;;;;;;4925964;29;20482;-63
2022/12/17 19:49:49;;;;;;;31.00;17.43;;;;;;;;;;4921487;29;20460;-62
2022/12/17 19:52:17;;;;;;;29.37;17.67;;;;;;;;;;4922757;29;20500;-63
2022/12/17 19:54:47;;;;;;;32.57;19.87;;;;;;;;;;4925939;29;20514;-62
2022/12/17 19:57:15;;;;;;;28.33;17.27;;;;;;;;;;4924404;29;20503;-62
2022/12/17 19:59:43;;;;;;;31.33;18.40;;;;;;;;;;4923991;29;20455;-62
2022/12/17 20:02:11;;;;;;;29.37;17.80;;;;;;;;;;4924332;29;20901;-62
2022/12/17 20:04:39;;;;;;;32.27;16.87;;;;;;;;;;4923865;29;20519;-62
2022/12/17 20:07:07;;;;;;;31.77;19.57;;;;;;;;;;4925807;29;20545;-62
2022/12/17 20:09:35;;;;;;;33.40;17.07;;;;;;;;;;4924567;29;20463;-63
2022/12/17 20:12:05;;;;;;;36.67;18.57;;;;;;;;;;4929371;29;20503;-62
2022/12/17 20:14:33;;;;;;;35.33;19.00;;;;;;;;;;4923063;29;20524;-62
2022/12/17 20:17:01;;;;;;;31.27;17.57;;;;;;;;;;4925840;29;20499;-62
2022/12/17 20:19:31;;;;;;;29.80;16.70;;;;;;;;;;4923539;29;20489;-63
2022/12/17 20:21:59;;;;;;;32.83;17.70;;;;;;;;;;4924701;29;20526;-63
2022/12/17 20:24:27;;;;;;;30.93;18.07;;;;;;;;;;4924099;29;20475;-63
2022/12/17 20:26:59;;;;;;;30.63;19.37;;;;;;;;;;4923296;29;21185;-63
2022/12/17 20:29:28;;;;;;;36.83;19.17;;;;;;;;;;4923096;29;20463;-63
2022/12/17 20:31:56;;;;;;;33.43;18.43;;;;;;;;;;4929941;29;20451;-63
2022/12/17 20:34:25;;;;;;;34.20;19.47;;;;;;;;;;4925080;29;20491;-63
2022/12/17 20:36:53;;;;;;;30.20;19.10;;;;;;;;;;4923622;29;20580;-63
2022/12/17 20:39:21;;;;;;;30.13;17.93;;;;;;;;;;4922529;29;20506;-63
2022/12/17 20:41:54;;;;;;;31.63;18.93;;;;;;;;;;4927590;29;20523;-63
2022/12/17 20:44:22;;;;;;;36.30;18.97;;;;;;;;;;4925261;29;20518;-63
2022/12/17 20:46:52;;;;;;;37.80;19.57;;;;;;;;;;4923468;29;20464;-63
2022/12/17 20:49:20;;;;;;;28.33;17.70;;;;;;;;;;4924073;29;20497;-63
2022/12/17 20:51:48;;;;;;;31.07;16.60;;;;;;;;;;4924552;29;20489;-63
2022/12/17 20:54:16;;;;;;;37.73;19.50;;;;;;;;;;4922737;29;20486;-63
2022/12/17 20:56:44;;;;;;;31.67;17.73;;;;;;;;;;4922048;29;20468;-62
2022/12/17 20:59:14;;;;;;;34.90;20.00;;;;;;;;;;4924150;29;20914;-62
2022/12/17 21:01:42;;;;;;;34.00;18.13;;;;;;;;;;4924048;29;20502;-63
2022/12/17 21:04:12;;;;;;;37.37;19.50;;;;;;;;;;4921361;29;20482;-63
2022/12/17 21:06:41;;;;;;;30.00;17.63;;;;;;;;;;4923140;29;20494;-62
2022/12/17 21:09:09;;;;;;;33.07;18.90;;;;;;;;;;4920838;29;20959;-62
2022/12/17 21:11:38;;;;;;;30.83;18.43;;;;;;;;;;4921935;29;20892;-62
2022/12/17 21:14:09;;;;;;;33.77;19.23;;;;;;;;;;4921741;29;20463;-62
2022/12/17 21:16:38;;;;;;;31.50;19.63;;;;;;;;;;4921718;29;20483;-62
2022/12/17 21:19:07;;;;;;;31.40;17.20;;;;;;;;;;4921798;29;20451;-62
2022/12/17 21:21:37;;;;;;;32.23;17.50;;;;;;;;;;4921540;29;20460;-62
2022/12/17 21:24:05;;;;;;;34.87;18.10;;;;;;;;;;4918574;29;20570;-62
2022/12/17 21:26:35;;;;;;;33.50;19.57;;;;;;;;;;4921531;29;20463;-62
2022/12/17 21:29:04;;;;;;;33.70;18.13;;;;;;;;;;4925894;29;21001;-62
2022/12/17 21:31:32;;;;;;;26.73;16.57;;;;;;;;;;4928125;29;21035;-62
2022/12/17 21:34:02;;;;;;;36.93;20.10;;;;;;;;;;4922362;29;20487;-62
2022/12/17 21:36:31;;;;;;;34.77;19.77;;;;;;;;;;4921772;29;20464;-62
2022/12/17 21:39:01;;;;;;;29.53;16.40;;;;;;;;;;4921859;29;20494;-62
2022/12/17 21:41:37;;;;;;;32.23;17.33;;;;;;;;;;4908775;29;20459;-62
2022/12/17 21:44:06;;;;;;;29.30;16.43;;;;;;;;;;4919754;29;20479;-62
2022/12/17 21:46:34;;;;;;;29.57;16.30;;;;;;;;;;4934359;29;20554;-62
2022/12/17 21:49:03;;;;;;;33.83;18.90;;;;;;;;;;4925474;29;20463;-62
2022/12/17 21:51:32;;;;;;;36.43;19.40;;;;;;;;;;4921670;29;20451;-62
2022/12/17 21:54:02;;;;;;;36.53;19.23;;;;;;;;;;4921502;29;20551;-62
2022/12/17 21:56:36;;;;;;;32.40;18.20;;;;;;;;;;4920099;29;20456;-62
2022/12/17 21:59:04;;;;;;;32.07;18.50;;;;;;;;;;4919919;29;20459;-62
2022/12/17 22:01:33;;;;;;;32.60;18.63;;;;;;;;;;4922468;29;20475;-62
2022/12/17 22:04:02;;;;;;;35.87;20.17;;;;;;;;;;4917537;29;20518;-62
2022/12/17 22:06:31;;;;;;;35.37;20.57;;;;;;;;;;4921606;29;20520;-62
2022/12/17 22:09:16;;;;;;;32.33;18.63;;;;;;;;;;4917991;29;20456;-62
2022/12/17 22:14:50;;;;;;;40.33;19.13;;;;;;;;;;4919220;29;20793;-62
2022/12/17 22:17:19;;;;;;;29.63;19.47;;;;;;;;;;4923358;29;20573;-62
2022/12/17 22:19:47;;;;;;;31.13;17.43;;;;;;;;;;4927577;29;20566;-62
2022/12/17 22:22:15;;;;;;;38.87;20.17;;;;;;;;;;4921349;29;20444;-62
2022/12/17 22:24:44;;;;;;;33.47;18.67;;;;;;;;;;4924862;29;20462;-61
2022/12/17 22:27:12;;;;;;;39.33;20.70;;;;;;;;;;4936747;29;20489;-62
2022/12/17 22:35:14;;;;;;;31.33;19.20;;;;;;;;;;4924128;29;20462;-62
2022/12/17 22:38:03;;;;;;;29.57;17.50;;;;;;;;;;4909752;29;20446;-62
2022/12/17 22:40:52;;;;;;;35.33;18.70;;;;;;;;;;4920694;29;20974;-62
2022/12/17 22:43:39;;;;;;;31.00;18.30;;;;;;;;;;4932949;29;20479;-62
2022/12/17 22:46:27;;;;;;;31.03;16.93;;;;;;;;;;4923835;29;20458;-63
2022/12/17 22:48:56;;;;;;;33.20;17.27;;;;;;;;;;4927327;29;20546;-62
2022/12/17 22:51:25;;;;;;;31.43;18.17;;;;;;;;;;4921751;29;20467;-62
2022/12/17 22:54:00;;;;;;;35.53;19.43;;;;;;;;;;4924564;29;20475;-62
2022/12/17 22:56:30;;;;;;;31.50;19.33;;;;;;;;;;4926808;29;20455;-62
2022/12/17 22:59:18;;;;;;;32.63;19.03;;;;;;;;;;4923163;29;20461;-63
2022/12/17 23:01:46;;;;;;;39.50;20.90;;;;;;;;;;4925213;29;20506;-62
2022/12/17 23:04:15;;;;;;;38.83;21.23;;;;;;;;;;4924222;29;20495;-62
2022/12/17 23:06:45;;;;;;;34.53;19.13;;;;;;;;;;4926632;29;20499;-62
2022/12/17 23:09:13;;;;;;;30.73;18.53;;;;;;;;;;4917233;29;20455;-62
2022/12/17 23:11:43;;;;;;;31.30;18.37;;;;;;;;;;4932392;29;20999;-62
2022/12/17 23:14:11;;;;;;;31.47;19.77;;;;;;;;;;4927339;29;20557;-62
2022/12/17 23:16:39;;;;;;;34.87;20.00;;;;;;;;;;4927551;29;20470;-62
2022/12/17 23:19:08;;;;;;;33.00;20.07;;;;;;;;;;4916136;29;20466;-62
2022/12/17 23:21:36;;;;;;;38.77;18.73;;;;;;;;;;4924706;29;20948;-62
2022/12/17 23:24:04;;;;;;;34.43;19.70;;;;;;;;;;4923672;29;20502;-62
2022/12/17 23:26:34;;;;;;;30.97;18.03;;;;;;;;;;4934384;29;20586;-62
2022/12/17 23:29:05;;;;;;;33.90;19.33;;;;;;;;;;4936165;29;20462;-62
2022/12/17 23:31:34;;;;;;;31.00;17.53;;;;;;;;;;4929604;29;20467;-62
2022/12/17 23:34:02;;;;;;;28.63;16.43;;;;;;;;;;4925789;29;20543;-62
2022/12/17 23:36:30;;;;;;;37.40;18.40;;;;;;;;;;4934969;29;20499;-62
2022/12/17 23:38:59;;;;;;;27.43;17.00;;;;;;;;;;4924131;29;20487;-62
2022/12/17 23:41:28;;;;;;;30.90;15.90;;;;;;;;;;4923534;29;20480;-62
2022/12/17 23:43:56;;;;;;;33.33;17.60;;;;;;;;;;4931752;29;20936;-62
2022/12/17 23:46:26;;;;;;;34.73;17.43;;;;;;;;;;4937096;29;20462;-62
2022/12/17 23:48:55;;;;;;;29.23;17.00;;;;;;;;;;4936748;29;20832;-62
2022/12/17 23:51:24;;;;;;;34.10;17.33;;;;;;;;;;4934822;29;20550;-62
2022/12/17 23:53:54;;;;;;;29.30;16.60;;;;;;;;;;4923648;29;20475;-62
2022/12/17 23:56:23;;;;;;;26.47;15.37;;;;;;;;;;4930589;29;20487;-62
2022/12/17 23:58:52;;;;;;;33.27;16.00;;;;;;;;;;4924616;29;20481;-62
